Time;durP1;ratioP1;P1;durP2;ratioP2;P2;SDS_P1;SDS_P2;PMS_P1;PMS_P2;Temp;Humidity;BMP_temperature;BMP_pressure;BME280_temperature;BME280_humidity;BME280_pressure;Samples;Min_cycle;Max_cycle;Signal;HPM_P1;HPM_P2
2023/03/30 00:01:10;;;;;;;6.37;4.30;;;;;;;;;;5018864;28;20208;-83
2023/03/30 00:03:37;;;;;;;9.10;4.50;;;;;;;;;;5046240;28;20226;-83
2023/03/30 00:06:04;;;;;;;6.10;3.93;;;;;;;;;;5021965;28;20237;-83
2023/03/30 00:08:32;;;;;;;6.20;4.17;;;;;;;;;;5055128;28;20180;-82
2023/03/30 00:11:08;;;;;;;11.83;4.30;;;;;;;;;;5038230;28;20191;-82
2023/03/30 00:13:35;;;;;;;8.10;4.53;;;;;;;;;;5053691;28;20689;-82
2023/03/30 00:16:02;;;;;;;8.80;4.40;;;;;;;;;;5018607;28;20227;-82
2023/03/30 00:18:30;;;;;;;9.03;3.93;;;;;;;;;;5014232;28;20215;-81
2023/03/30 00:20:57;;;;;;;5.87;4.27;;;;;;;;;;5015531;28;20242;-80
2023/03/30 00:23:23;;;;;;;8.97;4.30;;;;;;;;;;5020881;28;20212;-81
2023/03/30 00:25:49;;;;;;;7.97;4.00;;;;;;;;;;5021145;28;20233;-81
2023/03/30 00:28:15;;;;;;;8.18;4.78;;;;;;;;;;5036498;28;20494;-81
2023/03/30 00:30:42;;;;;;;9.17;4.03;;;;;;;;;;5054890;28;20184;-80
2023/03/30 00:33:08;;;;;;;6.27;4.30;;;;;;;;;;5037927;28;20198;-82
2023/03/30 00:35:34;;;;;;;6.23;3.60;;;;;;;;;;5037703;28;20231;-88
2023/03/30 00:38:02;;;;;;;8.60;4.40;;;;;;;;;;5020967;28;20242;-89
2023/03/30 00:40:28;;;;;;;8.30;3.70;;;;;;;;;;5030398;28;20204;-89
2023/03/30 00:43:01;;;;;;;5.77;3.77;;;;;;;;;;5036124;28;20212;-89
2023/03/30 00:45:29;;;;;;;5.93;3.87;;;;;;;;;;5048317;28;20180;-89
2023/03/30 00:47:55;;;;;;;6.83;3.30;;;;;;;;;;5037831;28;20256;-89
2023/03/30 00:50:23;;;;;;;7.82;3.70;;;;;;;;;;5037559;28;20448;-81
2023/03/30 00:52:53;;;;;;;8.33;3.53;;;;;;;;;;5054896;28;20180;-81
2023/03/30 00:55:24;;;;;;;7.90;3.07;;;;;;;;;;5033925;28;20226;-81
2023/03/30 00:57:51;;;;;;;7.83;3.43;;;;;;;;;;5037627;28;20184;-81
2023/03/30 01:00:17;;;;;;;6.73;3.57;;;;;;;;;;5021149;28;20191;-81
2023/03/30 01:02:45;;;;;;;7.83;3.23;;;;;;;;;;5028746;28;20295;-81
2023/03/30 01:05:12;;;;;;;6.73;3.20;;;;;;;;;;5035798;28;20188;-80
2023/03/30 01:07:39;;;;;;;7.17;3.30;;;;;;;;;;5036887;28;20206;-80
2023/03/30 01:10:06;;;;;;;8.67;3.70;;;;;;;;;;5017479;28;20195;-81
2023/03/30 01:12:33;;;;;;;5.00;3.27;;;;;;;;;;5014319;28;20181;-81
2023/03/30 01:14:59;;;;;;;7.47;3.10;;;;;;;;;;5043488;28;20180;-81
2023/03/30 01:17:28;;;;;;;8.73;3.40;;;;;;;;;;5029302;28;20190;-80
2023/03/30 01:20:17;;;;;;;5.27;3.23;;;;;;;;;;5033171;28;20195;-81
2023/03/30 01:22:46;;;;;;;6.67;3.50;;;;;;;;;;5040842;28;20261;-81
2023/03/30 01:25:17;;;;;;;7.30;3.63;;;;;;;;;;5036719;28;20176;-89
2023/03/30 01:27:53;;;;;;;5.57;3.53;;;;;;;;;;5026460;28;20216;-88
2023/03/30 01:30:26;;;;;;;5.93;3.50;;;;;;;;;;5033388;28;20207;-86
2023/03/30 01:33:15;;;;;;;7.83;3.33;;;;;;;;;;5024565;28;20307;-89
2023/03/30 01:35:41;;;;;;;6.33;3.47;;;;;;;;;;5010271;28;20243;-89
2023/03/30 01:38:23;;;;;;;5.13;3.30;;;;;;;;;;5034831;28;20196;-89
2023/03/30 01:41:00;;;;;;;5.43;3.10;;;;;;;;;;5036719;28;20238;-81
2023/03/30 01:43:38;;;;;;;5.70;3.10;;;;;;;;;;5028363;28;20208;-81
2023/03/30 01:46:08;;;;;;;7.67;3.03;;;;;;;;;;5035834;28;20180;-80
2023/03/30 01:48:44;;;;;;;5.63;3.07;;;;;;;;;;5025892;28;20206;-82
2023/03/30 01:51:11;;;;;;;6.77;3.20;;;;;;;;;;5036302;28;20183;-82
2023/03/30 01:53:46;;;;;;;6.10;2.90;;;;;;;;;;5036190;28;20282;-83
2023/03/30 01:56:21;;;;;;;6.57;3.10;;;;;;;;;;5032047;28;20219;-83
2023/03/30 01:59:00;;;;;;;6.60;3.00;;;;;;;;;;5053964;28;20190;-80
2023/03/30 02:01:28;;;;;;;5.37;3.30;;;;;;;;;;5038488;28;20180;-80
2023/03/30 02:03:56;;;;;;;9.40;3.70;;;;;;;;;;5016647;28;20212;-80
2023/03/30 02:06:26;;;;;;;6.83;3.30;;;;;;;;;;5017182;28;20195;-80
2023/03/30 02:08:53;;;;;;;4.47;2.97;;;;;;;;;;5053572;28;20180;-80
2023/03/30 02:11:19;;;;;;;4.73;3.30;;;;;;;;;;5033337;28;20176;-81
2023/03/30 02:13:46;;;;;;;7.03;2.70;;;;;;;;;;5015950;28;20184;-89
2023/03/30 02:16:15;;;;;;;6.00;2.73;;;;;;;;;;5052980;28;20179;-88
2023/03/30 02:18:41;;;;;;;4.77;2.97;;;;;;;;;;5026063;28;20188;-88
2023/03/30 02:21:07;;;;;;;6.47;3.30;;;;;;;;;;5025530;28;20196;-87
2023/03/30 02:23:38;;;;;;;5.13;3.00;;;;;;;;;;5034844;28;20215;-88
2023/03/30 02:26:06;;;;;;;4.33;2.63;;;;;;;;;;5044931;28;20251;-88
2023/03/30 02:28:32;;;;;;;5.50;2.83;;;;;;;;;;5016740;28;20192;-87
2023/03/30 02:30:58;;;;;;;5.83;2.83;;;;;;;;;;5036459;28;20180;-82
2023/03/30 02:33:29;;;;;;;8.33;3.23;;;;;;;;;;5037991;28;20188;-81
2023/03/30 02:36:09;;;;;;;5.33;2.90;;;;;;;;;;5034223;28;20231;-83
2023/03/30 02:38:35;;;;;;;7.07;2.70;;;;;;;;;;5057570;28;20215;-83
2023/03/30 02:41:07;;;;;;;10.47;3.00;;;;;;;;;;5057383;28;20176;-81
2023/03/30 02:43:52;;;;;;;7.00;2.73;;;;;;;;;;5057348;28;20208;-80
2023/03/30 02:46:18;;;;;;;5.33;2.70;;;;;;;;;;5054373;28;20271;-81
2023/03/30 02:48:50;;;;;;;7.60;2.63;;;;;;;;;;5039520;28;20200;-80
2023/03/30 02:51:35;;;;;;;5.90;2.73;;;;;;;;;;5055888;28;20198;-81
2023/03/30 02:54:34;;;;;;;4.70;2.43;;;;;;;;;;5039533;28;20277;-81
2023/03/30 02:57:00;;;;;;;4.97;2.20;;;;;;;;;;4995209;28;20201;-80
2023/03/30 02:59:37;;;;;;;4.50;2.77;;;;;;;;;;5039352;28;20184;-81
2023/03/30 03:02:06;;;;;;;5.43;2.17;;;;;;;;;;5039306;28;20184;-81
2023/03/30 03:04:33;;;;;;;5.90;2.10;;;;;;;;;;5038910;28;20292;-81
2023/03/30 03:07:01;;;;;;;5.20;2.50;;;;;;;;;;5039549;28;20190;-81
2023/03/30 03:09:27;;;;;;;4.90;2.20;;;;;;;;;;5039227;28;20175;-81
2023/03/30 03:11:54;;;;;;;5.13;2.37;;;;;;;;;;5039269;28;20206;-81
2023/03/30 03:14:20;;;;;;;4.70;2.50;;;;;;;;;;5023307;28;20190;-81
2023/03/30 03:16:46;;;;;;;5.23;2.47;;;;;;;;;;5038724;28;20218;-81
2023/03/30 03:19:13;;;;;;;4.53;2.57;;;;;;;;;;5023427;28;20291;-81
2023/03/30 03:21:39;;;;;;;4.47;2.30;;;;;;;;;;5056690;28;20191;-87
2023/03/30 03:24:06;;;;;;;5.17;2.50;;;;;;;;;;5022498;28;20211;-88
2023/03/30 03:26:32;;;;;;;4.47;2.80;;;;;;;;;;5022692;28;20180;-88
2023/03/30 03:28:58;;;;;;;4.37;2.33;;;;;;;;;;5019397;28;20180;-87
2023/03/30 03:31:26;;;;;;;4.53;2.40;;;;;;;;;;5022464;28;20184;-87
2023/03/30 03:33:52;;;;;;;6.03;3.00;;;;;;;;;;5033089;28;20200;-87
2023/03/30 03:36:18;;;;;;;7.27;2.97;;;;;;;;;;5037376;28;20282;-87
2023/03/30 03:38:44;;;;;;;8.23;2.63;;;;;;;;;;5016648;28;20184;-87
2023/03/30 03:41:10;;;;;;;3.93;2.57;;;;;;;;;;5036582;28;20215;-87
2023/03/30 03:43:37;;;;;;;4.40;2.63;;;;;;;;;;5020280;28;20299;-87
2023/03/30 03:46:03;;;;;;;5.63;2.87;;;;;;;;;;5033489;28;20210;-87
2023/03/30 03:48:29;;;;;;;5.13;2.87;;;;;;;;;;5017480;28;20204;-81
2023/03/30 03:50:56;;;;;;;3.43;2.33;;;;;;;;;;5021917;28;20286;-81
2023/03/30 03:53:24;;;;;;;4.83;2.40;;;;;;;;;;5037401;28;20216;-81
2023/03/30 03:55:51;;;;;;;6.80;2.60;;;;;;;;;;5040024;28;20202;-88
2023/03/30 03:58:17;;;;;;;4.90;2.33;;;;;;;;;;5054534;28;20192;-86
2023/03/30 04:00:43;;;;;;;4.17;2.30;;;;;;;;;;5038704;28;20243;-87
2023/03/30 04:03:11;;;;;;;5.27;2.57;;;;;;;;;;5038484;28;20207;-87
2023/03/30 04:05:37;;;;;;;3.67;2.10;;;;;;;;;;5055965;28;20184;-87
2023/03/30 04:08:03;;;;;;;3.30;2.10;;;;;;;;;;5032268;28;20233;-87
2023/03/30 04:10:29;;;;;;;8.07;2.50;;;;;;;;;;5019307;28;20177;-79
2023/03/30 04:12:55;;;;;;;3.60;2.10;;;;;;;;;;5014068;28;20235;-87
2023/03/30 04:15:22;;;;;;;5.03;2.17;;;;;;;;;;5021637;28;20218;-87
2023/03/30 04:17:56;;;;;;;6.13;2.13;;;;;;;;;;5037767;28;20187;-87
2023/03/30 04:20:23;;;;;;;6.07;2.17;;;;;;;;;;5019866;28;20192;-87
2023/03/30 04:22:49;;;;;;;5.10;1.90;;;;;;;;;;5021814;28;20211;-87
2023/03/30 04:25:15;;;;;;;4.40;1.90;;;;;;;;;;5038307;28;20238;-87
2023/03/30 04:27:41;;;;;;;5.63;1.80;;;;;;;;;;5034038;28;20238;-79
2023/03/30 04:30:08;;;;;;;6.33;1.87;;;;;;;;;;5030023;28;20185;-79
2023/03/30 04:32:37;;;;;;;3.17;1.50;;;;;;;;;;5032214;28;20176;-81
2023/03/30 04:35:06;;;;;;;3.97;1.73;;;;;;;;;;5019071;28;20227;-80
2023/03/30 04:37:34;;;;;;;4.73;1.73;;;;;;;;;;5043871;23;20242;-87
2023/03/30 04:40:00;;;;;;;3.70;1.50;;;;;;;;;;5037288;28;20211;-86
2023/03/30 04:42:29;;;;;;;5.00;1.90;;;;;;;;;;5037655;28;20191;-87
2023/03/30 04:44:56;;;;;;;4.73;1.80;;;;;;;;;;5037916;28;20184;-87
2023/03/30 04:47:22;;;;;;;4.17;2.03;;;;;;;;;;5053758;28;20243;-87
2023/03/30 04:49:48;;;;;;;6.13;1.73;;;;;;;;;;5030865;28;20283;-87
2023/03/30 04:52:14;;;;;;;4.47;1.70;;;;;;;;;;5017796;28;20177;-87
2023/03/30 04:54:40;;;;;;;4.23;1.80;;;;;;;;;;5035634;28;20177;-88
2023/03/30 04:57:06;;;;;;;5.87;1.90;;;;;;;;;;5017722;28;20187;-88
2023/03/30 04:59:32;;;;;;;6.23;2.33;;;;;;;;;;5020637;28;20184;-82
2023/03/30 05:01:58;;;;;;;4.67;2.10;;;;;;;;;;5037605;28;20180;-82
2023/03/30 05:04:25;;;;;;;4.07;2.13;;;;;;;;;;5037148;28;20204;-88
2023/03/30 05:06:51;;;;;;;5.47;2.10;;;;;;;;;;5038017;28;20204;-88
2023/03/30 05:09:17;;;;;;;5.03;2.60;;;;;;;;;;5036441;28;20181;-87
2023/03/30 05:11:43;;;;;;;7.53;2.83;;;;;;;;;;5020780;28;20190;-89
2023/03/30 05:14:09;;;;;;;6.10;2.53;;;;;;;;;;5036912;28;20219;-88
2023/03/30 05:16:36;;;;;;;5.33;2.57;;;;;;;;;;5020980;28;20180;-89
2023/03/30 05:19:02;;;;;;;7.70;2.73;;;;;;;;;;5017888;28;20192;-89
2023/03/30 05:21:30;;;;;;;6.57;2.53;;;;;;;;;;5018967;28;20212;-89
2023/03/30 05:23:56;;;;;;;6.33;3.20;;;;;;;;;;5055370;28;20203;-89
2023/03/30 05:26:22;;;;;;;5.97;3.07;;;;;;;;;;5020800;28;20183;-89
2023/03/30 05:28:49;;;;;;;6.93;3.40;;;;;;;;;;5054828;28;20184;-89
2023/03/30 05:31:15;;;;;;;7.20;3.10;;;;;;;;;;5039394;28;20183;-88
2023/03/30 05:33:42;;;;;;;7.97;3.10;;;;;;;;;;5049533;28;20204;-81
2023/03/30 05:36:08;;;;;;;6.63;3.30;;;;;;;;;;5053212;28;20176;-82
2023/03/30 05:38:35;;;;;;;6.67;3.57;;;;;;;;;;5024580;28;20228;-81
2023/03/30 05:41:01;;;;;;;8.13;3.80;;;;;;;;;;5017071;28;20242;-81
2023/03/30 05:43:27;;;;;;;6.33;3.50;;;;;;;;;;5035589;28;20246;-81
2023/03/30 05:45:53;;;;;;;6.07;3.87;;;;;;;;;;5053707;28;20188;-81
2023/03/30 05:48:19;;;;;;;5.40;3.70;;;;;;;;;;5020704;28;20176;-81
2023/03/30 05:50:47;;;;;;;8.10;3.90;;;;;;;;;;5016803;28;20181;-82
2023/03/30 05:53:13;;;;;;;5.90;3.90;;;;;;;;;;5037447;28;20201;-82
2023/03/30 05:55:39;;;;;;;11.63;4.43;;;;;;;;;;5021456;28;20241;-82
2023/03/30 05:58:05;;;;;;;7.83;4.00;;;;;;;;;;5037445;28;20183;-82
2023/03/30 06:00:32;;;;;;;6.90;4.13;;;;;;;;;;5036716;28;20219;-81
2023/03/30 06:02:58;;;;;;;8.80;4.57;;;;;;;;;;5007138;28;20204;-81
2023/03/30 06:05:25;;;;;;;9.40;4.90;;;;;;;;;;5031128;28;20188;-82
2023/03/30 06:07:51;;;;;;;10.40;4.50;;;;;;;;;;5030779;28;20195;-82
2023/03/30 06:10:17;;;;;;;7.90;4.47;;;;;;;;;;5013707;28;20216;-83
2023/03/30 06:12:43;;;;;;;6.67;4.00;;;;;;;;;;5010651;28;20211;-82
2023/03/30 06:15:09;;;;;;;10.33;4.50;;;;;;;;;;5047039;28;20180;-82
2023/03/30 06:17:35;;;;;;;8.07;4.00;;;;;;;;;;5040507;28;20209;-81
2023/03/30 06:20:07;;;;;;;8.53;3.67;;;;;;;;;;5061037;28;20203;-81
2023/03/30 06:22:33;;;;;;;13.87;4.30;;;;;;;;;;5038706;28;20179;-82
2023/03/30 06:25:00;;;;;;;10.13;3.67;;;;;;;;;;5037357;28;20261;-82
2023/03/30 06:27:26;;;;;;;9.40;4.07;;;;;;;;;;5053323;28;20190;-82
2023/03/30 06:29:52;;;;;;;9.70;3.60;;;;;;;;;;5020248;28;20180;-81
2023/03/30 06:32:18;;;;;;;13.70;4.20;;;;;;;;;;5036516;28;20180;-81
2023/03/30 06:34:44;;;;;;;9.23;3.67;;;;;;;;;;5035575;28;20198;-82
2023/03/30 06:37:10;;;;;;;9.77;3.43;;;;;;;;;;5020741;28;20251;-82
2023/03/30 06:39:37;;;;;;;10.47;3.50;;;;;;;;;;5011738;28;20273;-82
2023/03/30 06:42:04;;;;;;;9.30;3.63;;;;;;;;;;5017697;28;20181;-89
2023/03/30 06:44:30;;;;;;;8.53;3.70;;;;;;;;;;5024106;28;20212;-90
2023/03/30 06:46:56;;;;;;;14.13;4.10;;;;;;;;;;5034731;28;20229;-90
2023/03/30 06:49:22;;;;;;;9.93;3.90;;;;;;;;;;5037036;28;20202;-87
2023/03/30 06:51:48;;;;;;;12.43;4.13;;;;;;;;;;5020806;28;20188;-90
2023/03/30 06:54:18;;;;;;;8.53;3.70;;;;;;;;;;5036696;28;20199;-90
2023/03/30 06:56:45;;;;;;;12.10;4.73;;;;;;;;;;5020107;28;20192;-90
2023/03/30 06:59:11;;;;;;;13.57;4.50;;;;;;;;;;5018916;28;20215;-82
2023/03/30 07:01:37;;;;;;;15.90;4.40;;;;;;;;;;5020342;28;20188;-90
2023/03/30 07:04:03;;;;;;;8.57;3.40;;;;;;;;;;5020023;28;20222;-90
2023/03/30 07:06:29;;;;;;;11.23;4.10;;;;;;;;;;5009775;28;20185;-90
2023/03/30 07:08:55;;;;;;;13.83;3.90;;;;;;;;;;5033501;28;20199;-89
2023/03/30 07:11:22;;;;;;;12.70;3.57;;;;;;;;;;5036238;28;20180;-89
2023/03/30 07:13:48;;;;;;;13.60;4.20;;;;;;;;;;5036508;28;20180;-89
2023/03/30 07:16:14;;;;;;;8.97;3.90;;;;;;;;;;5036501;28;20180;-90
2023/03/30 07:18:40;;;;;;;10.53;3.90;;;;;;;;;;5036217;28;20184;-89
2023/03/30 07:21:07;;;;;;;12.73;3.80;;;;;;;;;;5019616;28;20188;-89
2023/03/30 07:23:34;;;;;;;13.77;4.23;;;;;;;;;;5034610;28;20280;-89
2023/03/30 07:26:00;;;;;;;11.60;3.93;;;;;;;;;;5041201;28;20188;-89
2023/03/30 07:28:26;;;;;;;10.65;4.35;;;;;;;;;;5041959;28;20498;-88
2023/03/30 07:30:52;;;;;;;12.37;4.03;;;;;;;;;;5036364;28;20184;-83
2023/03/30 07:33:19;;;;;;;11.97;3.73;;;;;;;;;;5023184;28;20254;-82
2023/03/30 07:35:46;;;;;;;11.30;4.10;;;;;;;;;;5017094;28;20188;-80
2023/03/30 07:38:13;;;;;;;9.20;3.67;;;;;;;;;;5036582;28;20228;-80
2023/03/30 07:40:39;;;;;;;11.60;3.73;;;;;;;;;;5056088;28;20202;-81
2023/03/30 07:43:06;;;;;;;14.98;4.35;;;;;;;;;;5022708;28;20435;-81
2023/03/30 07:45:32;;;;;;;11.23;3.72;;;;;;;;;;5038192;28;20415;-81
2023/03/30 07:47:58;;;;;;;11.38;3.90;;;;;;;;;;5049555;28;20419;-80
2023/03/30 07:50:24;;;;;;;12.70;4.15;;;;;;;;;;5037727;28;20507;-80
2023/03/30 07:52:51;;;;;;;12.57;3.97;;;;;;;;;;5020636;28;20443;-80
2023/03/30 07:55:17;;;;;;;13.90;4.18;;;;;;;;;;5022436;28;20500;-80
2023/03/30 07:57:43;;;;;;;13.40;3.90;;;;;;;;;;5036607;28;20404;-79
2023/03/30 08:00:11;;;;;;;11.40;3.33;;;;;;;;;;5039208;28;20180;-80
2023/03/30 08:02:37;;;;;;;13.20;3.50;;;;;;;;;;5037842;28;20365;-90
2023/03/30 08:05:03;;;;;;;8.33;3.20;;;;;;;;;;5031428;28;20184;-88
2023/03/30 08:07:31;;;;;;;14.80;3.83;;;;;;;;;;5038860;28;20189;-87
2023/03/30 08:09:57;;;;;;;14.97;3.40;;;;;;;;;;5029475;28;20279;-90
2023/03/30 08:12:23;;;;;;;13.13;3.97;;;;;;;;;;5023448;28;20514;-89
2023/03/30 08:14:49;;;;;;;16.52;4.13;;;;;;;;;;5025555;28;20456;-80
2023/03/30 08:17:15;;;;;;;15.50;3.73;;;;;;;;;;5022070;28;20180;-81
2023/03/30 08:19:41;;;;;;;14.17;3.73;;;;;;;;;;5022557;28;20258;-81
2023/03/30 08:22:07;;;;;;;20.07;4.10;;;;;;;;;;5037920;28;20191;-81
2023/03/30 08:24:33;;;;;;;12.90;3.33;;;;;;;;;;5017803;28;20231;-80
2023/03/30 08:26:59;;;;;;;14.80;3.77;;;;;;;;;;5022661;28;20180;-80
2023/03/30 08:29:25;;;;;;;19.13;4.10;;;;;;;;;;5019114;28;20271;-80
2023/03/30 08:31:51;;;;;;;17.13;4.00;;;;;;;;;;5036810;28;20192;-81
2023/03/30 08:34:18;;;;;;;17.57;4.13;;;;;;;;;;5011764;28;20290;-81
2023/03/30 08:36:44;;;;;;;12.83;3.63;;;;;;;;;;5039913;28;20184;-80
2023/03/30 08:39:10;;;;;;;14.43;3.73;;;;;;;;;;5025776;28;20236;-83
2023/03/30 08:41:42;;;;;;;15.30;4.37;;;;;;;;;;5007951;28;20189;-83
2023/03/30 08:44:08;;;;;;;17.30;4.03;;;;;;;;;;5055107;28;20357;-83
2023/03/30 08:46:37;;;;;;;20.70;4.57;;;;;;;;;;5051822;28;20208;-83
2023/03/30 08:49:05;;;;;;;16.97;3.80;;;;;;;;;;5036373;28;20185;-83
2023/03/30 08:51:32;;;;;;;13.90;3.90;;;;;;;;;;5018137;28;20259;-83
2023/03/30 08:54:04;;;;;;;13.57;3.60;;;;;;;;;;5026498;28;20190;-84
2023/03/30 08:56:32;;;;;;;16.63;4.23;;;;;;;;;;5054541;28;20191;-83
2023/03/30 08:59:07;;;;;;;17.93;4.20;;;;;;;;;;5035417;28;20192;-83
2023/03/30 09:01:39;;;;;;;11.73;3.83;;;;;;;;;;5023822;28;20190;-83
2023/03/30 09:04:12;;;;;;;16.33;4.10;;;;;;;;;;5038557;28;20295;-83
2023/03/30 09:06:38;;;;;;;16.27;3.97;;;;;;;;;;5035206;28;20263;-83
2023/03/30 09:09:04;;;;;;;16.33;4.13;;;;;;;;;;5018610;28;20215;-83
2023/03/30 09:11:33;;;;;;;17.30;4.20;;;;;;;;;;5045508;28;20235;-83
2023/03/30 09:14:01;;;;;;;20.60;4.10;;;;;;;;;;5049381;28;20188;-84
2023/03/30 09:16:30;;;;;;;15.97;4.00;;;;;;;;;;5038267;28;20218;-82
2023/03/30 09:18:58;;;;;;;15.50;3.90;;;;;;;;;;5039228;28;20194;-82
2023/03/30 09:21:27;;;;;;;14.03;3.60;;;;;;;;;;5055817;28;20219;-82
2023/03/30 09:23:56;;;;;;;18.27;4.63;;;;;;;;;;5036157;28;20204;-87
2023/03/30 09:26:35;;;;;;;16.23;4.57;;;;;;;;;;5036846;28;20184;-81
2023/03/30 09:29:12;;;;;;;21.10;5.20;;;;;;;;;;5037339;28;20176;-82
2023/03/30 09:31:40;;;;;;;16.10;4.70;;;;;;;;;;5036995;28;20180;-82
2023/03/30 09:34:15;;;;;;;14.07;4.50;;;;;;;;;;5037041;28;20175;-83
2023/03/30 09:36:41;;;;;;;20.73;4.80;;;;;;;;;;5026147;28;20265;-81
2023/03/30 09:39:16;;;;;;;15.57;4.20;;;;;;;;;;5050472;28;20232;-81
2023/03/30 09:41:45;;;;;;;13.20;4.47;;;;;;;;;;5024054;28;20214;-82
2023/03/30 09:44:26;;;;;;;21.50;5.50;;;;;;;;;;5035838;28;20524;-80
2023/03/30 09:46:57;;;;;;;16.80;4.73;;;;;;;;;;5054451;28;20183;-81
2023/03/30 09:49:26;;;;;;;15.77;4.70;;;;;;;;;;5036957;28;20222;-80
2023/03/30 09:51:54;;;;;;;18.57;5.10;;;;;;;;;;5037327;28;20190;-81
2023/03/30 09:54:21;;;;;;;20.67;5.03;;;;;;;;;;5037030;28;20215;-81
2023/03/30 09:56:50;;;;;;;18.73;4.63;;;;;;;;;;5020555;28;20200;-81
2023/03/30 09:59:28;;;;;;;15.60;4.90;;;;;;;;;;5021049;28;20188;-80
2023/03/30 10:02:15;;;;;;;21.40;5.20;;;;;;;;;;5035464;28;20227;-82
2023/03/30 10:04:55;;;;;;;17.63;5.07;;;;;;;;;;5036928;28;20269;-80
2023/03/30 10:07:35;;;;;;;20.27;4.63;;;;;;;;;;5054051;28;20179;-81
2023/03/30 10:10:21;;;;;;;20.13;4.63;;;;;;;;;;5054526;28;20190;-81
2023/03/30 10:12:48;;;;;;;16.63;4.47;;;;;;;;;;5020783;28;20230;-81
2023/03/30 10:15:16;;;;;;;18.67;4.43;;;;;;;;;;5036082;28;20176;-81
2023/03/30 10:17:44;;;;;;;14.80;4.47;;;;;;;;;;5036745;28;20201;-80
2023/03/30 10:20:29;;;;;;;14.53;4.23;;;;;;;;;;5036207;28;20184;-80
2023/03/30 10:22:58;;;;;;;23.43;4.97;;;;;;;;;;5036295;28;20266;-80
2023/03/30 10:25:30;;;;;;;15.43;4.03;;;;;;;;;;5036135;28;20183;-80
2023/03/30 10:27:57;;;;;;;17.30;4.73;;;;;;;;;;5018653;28;20266;-80
2023/03/30 10:30:25;;;;;;;19.87;4.97;;;;;;;;;;5035522;28;20203;-79
2023/03/30 10:32:52;;;;;;;17.17;4.67;;;;;;;;;;5035988;28;20176;-80
2023/03/30 10:35:20;;;;;;;15.07;4.70;;;;;;;;;;5053697;28;20266;-82
2023/03/30 10:37:46;;;;;;;18.20;4.97;;;;;;;;;;5035586;28;20227;-82
2023/03/30 10:40:19;;;;;;;20.93;5.27;;;;;;;;;;5031852;28;20189;-81
2023/03/30 10:42:47;;;;;;;17.20;4.77;;;;;;;;;;5015987;28;20196;-89
2023/03/30 10:45:16;;;;;;;19.40;5.33;;;;;;;;;;5025241;28;20179;-88
2023/03/30 10:48:03;;;;;;;20.83;5.37;;;;;;;;;;5037242;28;20176;-90
2023/03/30 10:50:34;;;;;;;24.33;5.53;;;;;;;;;;5034167;28;20172;-89
2023/03/30 10:53:39;;;;;;;18.00;4.80;;;;;;;;;;5034504;28;20215;-90
2023/03/30 10:56:24;;;;;;;17.73;4.93;;;;;;;;;;4934978;29;20187;-88
2023/03/30 10:59:09;;;;;;;19.03;4.93;;;;;;;;;;4953890;29;20187;-89
2023/03/30 11:01:47;;;;;;;20.10;5.07;;;;;;;;;;4999469;28;20189;-88
2023/03/30 11:04:22;;;;;;;24.33;5.60;;;;;;;;;;5037267;28;20291;-89
2023/03/30 11:06:49;;;;;;;19.50;5.10;;;;;;;;;;5040135;28;20210;-88
2023/03/30 11:09:17;;;;;;;21.07;5.70;;;;;;;;;;5020471;28;20255;-82
2023/03/30 11:11:55;;;;;;;19.83;5.13;;;;;;;;;;5020483;28;20243;-83
2023/03/30 11:14:27;;;;;;;24.60;6.10;;;;;;;;;;5039670;28;20183;-88
2023/03/30 11:17:02;;;;;;;19.53;5.17;;;;;;;;;;5040758;28;20182;-88
2023/03/30 11:19:32;;;;;;;18.70;5.43;;;;;;;;;;5036681;28;20278;-88
2023/03/30 11:22:16;;;;;;;16.77;5.57;;;;;;;;;;5041083;28;20275;-82
2023/03/30 11:24:45;;;;;;;18.67;5.63;;;;;;;;;;5035587;28;20211;-83
2023/03/30 11:27:20;;;;;;;21.40;5.90;;;;;;;;;;5029206;28;20191;-83
2023/03/30 11:29:55;;;;;;;21.83;5.37;;;;;;;;;;5019746;28;20252;-89
2023/03/30 11:32:25;;;;;;;21.87;6.37;;;;;;;;;;5019966;28;20176;-89
2023/03/30 11:34:51;;;;;;;19.20;5.43;;;;;;;;;;5032108;28;20188;-83
2023/03/30 11:37:23;;;;;;;19.73;5.43;;;;;;;;;;5038243;28;20184;-82
2023/03/30 11:39:56;;;;;;;23.20;5.73;;;;;;;;;;5055227;28;20192;-82
2023/03/30 11:42:28;;;;;;;19.00;4.87;;;;;;;;;;5050392;28;20189;-82
2023/03/30 11:44:55;;;;;;;18.63;5.43;;;;;;;;;;5053277;28;20211;-88
2023/03/30 11:47:35;;;;;;;20.53;4.90;;;;;;;;;;5024372;28;20180;-82
2023/03/30 11:50:08;;;;;;;22.70;5.03;;;;;;;;;;5040827;28;20187;-82
2023/03/30 11:52:39;;;;;;;21.27;4.40;;;;;;;;;;5056426;28;20180;-82
2023/03/30 11:55:08;;;;;;;19.58;4.60;;;;;;;;;;5037266;28;20437;-81
2023/03/30 11:57:53;;;;;;;19.53;4.97;;;;;;;;;;5038642;28;20176;-81
2023/03/30 12:00:22;;;;;;;16.50;4.20;;;;;;;;;;5038412;28;20183;-79
2023/03/30 12:03:00;;;;;;;15.90;4.03;;;;;;;;;;5038831;28;20176;-79
2023/03/30 12:05:27;;;;;;;17.70;4.60;;;;;;;;;;5038759;28;20206;-82
2023/03/30 12:07:53;;;;;;;19.70;5.00;;;;;;;;;;5036393;28;20259;-81
2023/03/30 12:10:36;;;;;;;14.03;4.43;;;;;;;;;;5038350;28;20184;-81
2023/03/30 12:13:02;;;;;;;12.83;3.63;;;;;;;;;;5032351;28;20181;-82
2023/03/30 12:15:43;;;;;;;15.97;4.13;;;;;;;;;;5021443;28;20192;-83
2023/03/30 12:18:35;;;;;;;12.47;3.80;;;;;;;;;;5038262;28;20254;-83
2023/03/30 12:21:22;;;;;;;13.93;4.00;;;;;;;;;;5012885;28;20192;-91
2023/03/30 12:24:12;;;;;;;17.20;4.37;;;;;;;;;;5022570;28;20215;-91
2023/03/30 12:26:38;;;;;;;14.40;4.07;;;;;;;;;;5039480;28;20206;-88
2023/03/30 12:29:05;;;;;;;24.87;5.10;;;;;;;;;;5031795;28;20195;-89
2023/03/30 12:31:50;;;;;;;15.47;4.10;;;;;;;;;;5041977;28;20184;-90
2023/03/30 12:34:16;;;;;;;19.07;4.63;;;;;;;;;;5035284;28;20173;-90
2023/03/30 12:36:45;;;;;;;17.93;4.20;;;;;;;;;;5035012;28;20176;-90
2023/03/30 12:39:25;;;;;;;18.30;4.57;;;;;;;;;;5035322;28;20236;-89
2023/03/30 12:42:03;;;;;;;19.27;4.40;;;;;;;;;;5049517;28;20188;-90
2023/03/30 12:44:31;;;;;;;15.37;3.80;;;;;;;;;;5025561;28;20206;-90
2023/03/30 12:47:00;;;;;;;10.80;3.50;;;;;;;;;;5038977;28;20184;-80
2023/03/30 12:49:32;;;;;;;15.37;4.03;;;;;;;;;;5037883;28;20176;-80
2023/03/30 12:51:58;;;;;;;13.90;3.47;;;;;;;;;;5037729;28;20226;-80
2023/03/30 12:54:43;;;;;;;18.83;4.23;;;;;;;;;;5037754;28;20188;-80
2023/03/30 12:57:35;;;;;;;17.60;4.23;;;;;;;;;;5037194;28;20195;-80
2023/03/30 13:00:20;;;;;;;17.90;4.37;;;;;;;;;;5046634;28;20198;-80
2023/03/30 13:02:56;;;;;;;20.90;4.70;;;;;;;;;;5036879;28;20184;-80
2023/03/30 13:05:29;;;;;;;18.43;4.50;;;;;;;;;;5037729;28;20184;-84
2023/03/30 13:07:56;;;;;;;20.50;4.17;;;;;;;;;;5037537;28;20191;-83
2023/03/30 13:10:42;;;;;;;16.97;4.17;;;;;;;;;;5036611;28;20188;-84
2023/03/30 13:13:28;;;;;;;19.90;5.03;;;;;;;;;;5053210;28;20282;-83
2023/03/30 13:15:56;;;;;;;13.80;3.87;;;;;;;;;;5043492;28;20207;-83
2023/03/30 13:18:45;;;;;;;17.00;4.30;;;;;;;;;;5022861;28;20185;-83
2023/03/30 13:21:19;;;;;;;17.43;4.50;;;;;;;;;;5028689;28;20188;-82
2023/03/30 13:23:58;;;;;;;15.30;4.50;;;;;;;;;;5017298;28;20208;-81
2023/03/30 13:26:26;;;;;;;17.63;4.20;;;;;;;;;;5034452;28;20176;-81
2023/03/30 13:29:14;;;;;;;18.30;3.73;;;;;;;;;;5036763;28;20183;-81
2023/03/30 13:31:55;;;;;;;17.07;4.20;;;;;;;;;;5037714;28;20230;-82
2023/03/30 13:34:37;;;;;;;17.77;4.00;;;;;;;;;;5034043;28;20203;-82
2023/03/30 13:37:09;;;;;;;17.70;4.20;;;;;;;;;;5047001;28;20184;-83
2023/03/30 13:39:39;;;;;;;15.87;4.37;;;;;;;;;;5054435;28;20192;-82
2023/03/30 13:42:20;;;;;;;20.57;4.70;;;;;;;;;;5037431;28;20203;-81
2023/03/30 13:45:24;;;;;;;18.83;4.30;;;;;;;;;;5024270;28;20207;-80
2023/03/30 13:47:56;;;;;;;15.53;4.07;;;;;;;;;;4980314;28;20197;-80
2023/03/30 13:50:24;;;;;;;19.97;4.13;;;;;;;;;;4977067;28;20212;-81
2023/03/30 13:52:51;;;;;;;18.20;4.30;;;;;;;;;;4993370;28;20250;-81
2023/03/30 13:55:31;;;;;;;18.40;4.37;;;;;;;;;;5037530;28;20191;-83
2023/03/30 13:58:02;;;;;;;17.00;4.00;;;;;;;;;;5036829;28;20257;-83
2023/03/30 14:00:42;;;;;;;18.67;4.20;;;;;;;;;;5036119;28;20208;-83
2023/03/30 14:03:27;;;;;;;14.77;4.10;;;;;;;;;;5037446;28;20266;-84
2023/03/30 14:05:53;;;;;;;15.20;3.80;;;;;;;;;;5037217;28;20229;-83
2023/03/30 14:08:19;;;;;;;17.53;4.30;;;;;;;;;;5018759;28;20199;-83
2023/03/30 14:10:47;;;;;;;19.83;4.20;;;;;;;;;;5041147;28;20215;-88
2023/03/30 14:13:13;;;;;;;16.33;3.67;;;;;;;;;;5051320;28;20179;-88
2023/03/30 14:15:39;;;;;;;19.33;4.23;;;;;;;;;;5019334;28;20189;-90
2023/03/30 14:18:06;;;;;;;14.83;4.40;;;;;;;;;;5038153;28;20196;-89
2023/03/30 14:20:49;;;;;;;17.13;4.10;;;;;;;;;;5041044;28;20184;-83
2023/03/30 14:23:21;;;;;;;16.57;3.90;;;;;;;;;;5031069;28;20207;-83
2023/03/30 14:25:50;;;;;;;15.63;3.50;;;;;;;;;;5039361;28;20183;-83
2023/03/30 14:28:20;;;;;;;12.93;3.60;;;;;;;;;;5020765;28;20191;-82
2023/03/30 14:30:49;;;;;;;12.47;3.67;;;;;;;;;;5036924;28;20191;-82
2023/03/30 14:33:16;;;;;;;15.77;3.70;;;;;;;;;;5039876;28;20180;-81
2023/03/30 14:35:48;;;;;;;15.60;3.40;;;;;;;;;;5039962;28;20187;-82
2023/03/30 14:38:22;;;;;;;13.47;3.37;;;;;;;;;;5040590;28;20259;-82
2023/03/30 14:40:49;;;;;;;11.80;3.23;;;;;;;;;;5040297;28;20195;-82
2023/03/30 14:43:17;;;;;;;12.93;3.20;;;;;;;;;;5035382;28;20302;-81
2023/03/30 14:45:44;;;;;;;14.60;3.53;;;;;;;;;;5040897;28;20266;-81
2023/03/30 14:48:16;;;;;;;12.03;3.23;;;;;;;;;;5024323;28;20207;-81
2023/03/30 14:50:42;;;;;;;10.43;2.97;;;;;;;;;;5040580;28;20245;-82
2023/03/30 14:53:09;;;;;;;12.33;3.00;;;;;;;;;;5023858;28;20184;-81